Time;durP1;ratioP1;P1;durP2;ratioP2;P2;SDS_P1;SDS_P2;PMS_P1;PMS_P2;Temp;Humidity;BMP_temperature;BMP_pressure;BME280_temperature;BME280_humidity;BME280_pressure;Samples;Min_cycle;Max_cycle;Signal;HPM_P1;HPM_P2
2021/08/27 00:00:55;;;;;;;10.75;4.75;;;;;;;;;;5131460;27;20479;-70
2021/08/27 00:03:22;;;;;;;8.85;4.50;;;;;;;;;;5132282;27;20054;-70
2021/08/27 00:05:48;;;;;;;6.88;4.07;;;;;;;;;;5133407;27;20039;-70
2021/08/27 00:08:15;;;;;;;7.47;4.43;;;;;;;;;;5133341;27;20039;-70
2021/08/27 00:10:41;;;;;;;8.65;4.53;;;;;;;;;;5130135;27;20047;-70
2021/08/27 00:13:10;;;;;;;12.38;5.80;;;;;;;;;;5133255;27;20039;-70
2021/08/27 00:15:36;;;;;;;8.63;5.03;;;;;;;;;;5133324;27;20043;-70
2021/08/27 00:18:03;;;;;;;10.48;4.95;;;;;;;;;;5132657;27;20080;-70
2021/08/27 00:20:29;;;;;;;9.90;4.55;;;;;;;;;;5130946;27;20491;-70
2021/08/27 00:22:56;;;;;;;9.93;5.00;;;;;;;;;;5132296;27;20039;-70
2021/08/27 00:25:22;;;;;;;10.52;6.25;;;;;;;;;;5132503;27;20051;-70
2021/08/27 00:27:49;;;;;;;7.75;4.47;;;;;;;;;;5132785;27;20043;-70
2021/08/27 00:30:17;;;;;;;8.00;4.40;;;;;;;;;;5132405;27;20058;-70
2021/08/27 00:32:43;;;;;;;8.55;5.07;;;;;;;;;;5132458;27;20035;-70
2021/08/27 00:35:10;;;;;;;8.30;4.13;;;;;;;;;;5132590;27;20047;-70
2021/08/27 00:37:37;;;;;;;6.95;3.90;;;;;;;;;;5132543;27;20050;-70
2021/08/27 00:40:04;;;;;;;8.68;4.95;;;;;;;;;;5132043;27;20054;-70
2021/08/27 00:42:31;;;;;;;9.63;4.55;;;;;;;;;;5132174;27;20046;-70
2021/08/27 00:44:57;;;;;;;9.63;5.40;;;;;;;;;;5132596;27;20047;-70
2021/08/27 00:47:25;;;;;;;11.02;4.57;;;;;;;;;;5132774;27;20047;-70
2021/08/27 00:49:52;;;;;;;7.65;4.05;;;;;;;;;;5132285;27;20123;-70
2021/08/27 00:52:18;;;;;;;11.25;4.95;;;;;;;;;;5132391;27;20050;-70
2021/08/27 00:54:48;;;;;;;7.78;4.40;;;;;;;;;;5132247;27;20062;-70
2021/08/27 00:57:14;;;;;;;7.18;3.85;;;;;;;;;;5129876;27;20050;-69
2021/08/27 00:59:41;;;;;;;8.68;4.50;;;;;;;;;;5132099;27;20050;-69
2021/08/27 01:02:07;;;;;;;9.07;5.03;;;;;;;;;;5131779;28;20058;-69
2021/08/27 01:04:36;;;;;;;9.90;5.07;;;;;;;;;;5132265;28;20039;-70
2021/08/27 01:07:06;;;;;;;10.45;4.78;;;;;;;;;;5131953;28;20054;-69
2021/08/27 01:09:38;;;;;;;9.02;4.38;;;;;;;;;;5128926;28;20054;-69
2021/08/27 01:12:09;;;;;;;7.20;4.35;;;;;;;;;;5132003;28;20054;-70
2021/08/27 01:14:37;;;;;;;9.60;4.57;;;;;;;;;;5129797;28;20047;-70
2021/08/27 01:17:08;;;;;;;8.45;4.30;;;;;;;;;;5132215;28;20065;-70
2021/08/27 01:20:10;;;;;;;9.23;4.82;;;;;;;;;;5129109;28;20407;-69
2021/08/27 01:22:54;;;;;;;8.73;5.07;;;;;;;;;;5130705;28;20042;-69
2021/08/27 01:25:22;;;;;;;12.73;4.32;;;;;;;;;;5130474;28;20070;-69
2021/08/27 01:27:50;;;;;;;9.07;4.65;;;;;;;;;;5131870;28;20096;-69
2021/08/27 01:30:20;;;;;;;10.23;4.72;;;;;;;;;;5131823;28;20043;-69
2021/08/27 01:32:53;;;;;;;8.88;5.25;;;;;;;;;;5131948;28;20070;-69
2021/08/27 01:35:21;;;;;;;10.07;4.88;;;;;;;;;;5131089;27;20348;-69
2021/08/27 01:37:50;;;;;;;8.10;4.50;;;;;;;;;;5136390;27;20058;-69
2021/08/27 01:40:17;;;;;;;13.50;5.20;;;;;;;;;;5135704;27;20050;-69
2021/08/27 01:42:45;;;;;;;9.25;5.03;;;;;;;;;;5136405;27;20044;-69
2021/08/27 01:45:12;;;;;;;7.93;4.45;;;;;;;;;;5136240;27;20399;-69
2021/08/27 01:47:39;;;;;;;8.63;4.82;;;;;;;;;;5136166;27;20055;-69
2021/08/27 01:50:07;;;;;;;9.25;4.40;;;;;;;;;;5136056;27;20055;-69
2021/08/27 01:52:37;;;;;;;8.98;4.85;;;;;;;;;;5136142;27;20444;-69
2021/08/27 01:55:05;;;;;;;9.95;4.78;;;;;;;;;;5134595;27;20046;-69
2021/08/27 01:57:32;;;;;;;8.77;5.10;;;;;;;;;;5115130;28;20048;-69
2021/08/27 02:00:00;;;;;;;7.72;4.35;;;;;;;;;;5115201;28;20051;-69
2021/08/27 02:02:27;;;;;;;6.40;3.75;;;;;;;;;;5115305;28;20073;-69
2021/08/27 02:04:56;;;;;;;7.40;4.03;;;;;;;;;;5115241;28;20495;-69
2021/08/27 02:07:23;;;;;;;8.68;4.20;;;;;;;;;;5115202;28;20496;-69
2021/08/27 02:09:53;;;;;;;11.73;4.90;;;;;;;;;;5115074;28;20043;-69
2021/08/27 02:12:20;;;;;;;9.25;5.57;;;;;;;;;;5134108;27;20463;-69
2021/08/27 02:14:49;;;;;;;9.55;4.97;;;;;;;;;;5135775;27;20078;-69
2021/08/27 02:17:16;;;;;;;10.05;4.65;;;;;;;;;;5135580;27;20047;-69
2021/08/27 02:19:42;;;;;;;8.93;4.97;;;;;;;;;;5135363;27;20521;-69
2021/08/27 02:22:11;;;;;;;11.23;4.50;;;;;;;;;;5134160;27;20050;-69
2021/08/27 02:24:41;;;;;;;9.27;4.63;;;;;;;;;;5134803;27;20051;-69
2021/08/27 02:27:09;;;;;;;9.77;4.95;;;;;;;;;;5135380;27;20517;-69
2021/08/27 02:29:36;;;;;;;7.72;4.50;;;;;;;;;;5135219;27;20047;-69
2021/08/27 02:32:06;;;;;;;10.43;5.47;;;;;;;;;;5135205;27;20054;-69
2021/08/27 02:34:35;;;;;;;8.82;4.95;;;;;;;;;;5134632;27;20043;-69
2021/08/27 02:37:03;;;;;;;7.55;4.28;;;;;;;;;;5134689;27;20065;-69
2021/08/27 02:39:30;;;;;;;7.78;4.28;;;;;;;;;;5134697;27;20051;-69
2021/08/27 02:41:57;;;;;;;9.18;4.78;;;;;;;;;;5134923;27;20494;-69
2021/08/27 02:44:26;;;;;;;10.43;5.57;;;;;;;;;;5135256;27;20084;-69
2021/08/27 02:46:52;;;;;;;7.78;4.38;;;;;;;;;;5133707;27;20051;-69
2021/08/27 02:49:19;;;;;;;8.30;4.38;;;;;;;;;;5135002;27;20407;-69
2021/08/27 02:51:48;;;;;;;9.63;4.47;;;;;;;;;;5135010;27;20050;-69
2021/08/27 02:54:16;;;;;;;9.85;5.05;;;;;;;;;;5134962;27;20047;-69
2021/08/27 02:56:44;;;;;;;8.43;4.57;;;;;;;;;;5135030;27;20407;-69
2021/08/27 02:59:13;;;;;;;7.68;4.93;;;;;;;;;;5134492;27;20043;-69
2021/08/27 03:01:49;;;;;;;12.68;5.43;;;;;;;;;;5134932;27;20047;-69
2021/08/27 03:04:25;;;;;;;8.98;4.60;;;;;;;;;;5133757;27;20039;-70
2021/08/27 03:06:59;;;;;;;7.07;4.40;;;;;;;;;;5123562;27;20815;-69
2021/08/27 03:09:29;;;;;;;10.63;4.57;;;;;;;;;;5134611;27;20411;-69
2021/08/27 03:12:00;;;;;;;8.60;4.63;;;;;;;;;;5134589;27;20047;-70
2021/08/27 03:14:31;;;;;;;7.82;4.40;;;;;;;;;;5134454;27;20081;-69
2021/08/27 03:17:01;;;;;;;8.30;4.45;;;;;;;;;;5134722;27;20057;-69
2021/08/27 03:19:29;;;;;;;6.78;3.95;;;;;;;;;;5134579;27;20051;-69
2021/08/27 03:21:58;;;;;;;8.30;4.53;;;;;;;;;;5134411;27;20047;-69
2021/08/27 03:24:30;;;;;;;9.57;4.88;;;;;;;;;;5132699;27;20391;-69
2021/08/27 03:27:00;;;;;;;8.77;4.35;;;;;;;;;;5134074;27;20475;-69
2021/08/27 03:29:29;;;;;;;8.73;4.97;;;;;;;;;;5134009;27;20051;-69
2021/08/27 03:31:56;;;;;;;9.90;4.22;;;;;;;;;;5134246;27;20498;-69
2021/08/27 03:34:24;;;;;;;8.43;4.32;;;;;;;;;;5133751;27;20725;-69
2021/08/27 03:36:51;;;;;;;10.23;4.68;;;;;;;;;;5133691;27;20078;-69
2021/08/27 03:39:19;;;;;;;10.88;4.95;;;;;;;;;;5133763;27;20055;-69
2021/08/27 03:41:46;;;;;;;9.20;4.32;;;;;;;;;;5134028;27;20070;-69
2021/08/27 03:44:15;;;;;;;8.43;4.93;;;;;;;;;;5133782;27;20066;-69
2021/08/27 03:46:42;;;;;;;8.65;4.60;;;;;;;;;;5134007;27;20587;-69
2021/08/27 03:49:08;;;;;;;9.30;4.40;;;;;;;;;;5133969;27;20047;-69
2021/08/27 03:51:36;;;;;;;9.45;4.40;;;;;;;;;;5133724;27;20062;-69
2021/08/27 03:54:03;;;;;;;10.48;4.15;;;;;;;;;;5133467;27;20043;-69
2021/08/27 03:56:30;;;;;;;9.18;4.22;;;;;;;;;;5132462;27;20056;-70
2021/08/27 03:58:57;;;;;;;9.43;4.38;;;;;;;;;;5133282;27;20043;-69
2021/08/27 04:01:24;;;;;;;8.63;4.72;;;;;;;;;;5133041;27;20043;-69
2021/08/27 04:03:51;;;;;;;8.23;4.50;;;;;;;;;;5133035;27;20039;-69
2021/08/27 04:06:17;;;;;;;10.23;4.65;;;;;;;;;;5133557;27;20059;-69
2021/08/27 04:08:45;;;;;;;10.43;4.80;;;;;;;;;;5133259;27;20047;-69
2021/08/27 04:11:13;;;;;;;10.82;5.85;;;;;;;;;;5133509;27;20545;-69
2021/08/27 04:13:40;;;;;;;9.18;4.88;;;;;;;;;;5133401;27;20372;-69
2021/08/27 04:16:07;;;;;;;7.07;4.10;;;;;;;;;;5133254;27;20050;-69
2021/08/27 04:18:34;;;;;;;8.93;5.28;;;;;;;;;;5133348;27;20047;-70
2021/08/27 04:21:01;;;;;;;9.30;4.22;;;;;;;;;;5132914;27;20039;-69
2021/08/27 04:23:27;;;;;;;6.78;4.03;;;;;;;;;;5132263;27;20108;-69
2021/08/27 04:25:55;;;;;;;12.50;4.80;;;;;;;;;;5132272;27;20073;-69
2021/08/27 04:28:21;;;;;;;9.82;5.05;;;;;;;;;;5133228;27;20053;-69
2021/08/27 04:30:48;;;;;;;12.52;5.68;;;;;;;;;;5132934;27;20051;-69
2021/08/27 04:33:15;;;;;;;8.98;5.38;;;;;;;;;;5132616;27;20054;-69
2021/08/27 04:35:41;;;;;;;8.40;5.07;;;;;;;;;;5132398;27;20563;-69
2021/08/27 04:38:08;;;;;;;12.13;5.03;;;;;;;;;;5132859;27;20054;-69
2021/08/27 04:40:34;;;;;;;7.60;4.20;;;;;;;;;;5132931;27;20467;-69
2021/08/27 04:43:02;;;;;;;9.20;4.63;;;;;;;;;;5132979;27;20051;-69
2021/08/27 04:45:29;;;;;;;9.35;5.53;;;;;;;;;;5132374;27;20051;-69
2021/08/27 04:47:55;;;;;;;10.63;5.22;;;;;;;;;;5132605;27;20054;-69
2021/08/27 04:50:22;;;;;;;10.02;5.00;;;;;;;;;;5132681;27;20050;-70
2021/08/27 04:52:48;;;;;;;9.90;5.20;;;;;;;;;;5132752;27;20054;-70
2021/08/27 04:55:15;;;;;;;12.70;6.03;;;;;;;;;;5132559;27;20046;-69
2021/08/27 04:57:42;;;;;;;15.15;6.25;;;;;;;;;;5132714;27;20051;-69
2021/08/27 05:00:11;;;;;;;10.82;5.60;;;;;;;;;;5132534;27;20047;-70
2021/08/27 05:02:38;;;;;;;10.25;5.70;;;;;;;;;;5132499;27;20055;-69
2021/08/27 05:05:05;;;;;;;10.07;5.03;;;;;;;;;;5131603;28;20058;-69
2021/08/27 05:07:32;;;;;;;7.20;4.45;;;;;;;;;;5132346;28;20057;-70
2021/08/27 05:09:58;;;;;;;10.82;5.32;;;;;;;;;;5132831;27;20051;-69
2021/08/27 05:12:25;;;;;;;10.07;4.95;;;;;;;;;;5137021;27;20066;-70
2021/08/27 05:14:51;;;;;;;10.48;5.13;;;;;;;;;;5136540;27;20050;-69
2021/08/27 05:17:19;;;;;;;10.45;6.32;;;;;;;;;;5136856;27;20059;-69
2021/08/27 05:19:46;;;;;;;11.63;5.28;;;;;;;;;;5136601;27;20361;-69
2021/08/27 05:22:13;;;;;;;9.23;4.63;;;;;;;;;;5136715;27;20058;-70
2021/08/27 05:24:39;;;;;;;10.57;5.10;;;;;;;;;;5136011;27;20039;-70
2021/08/27 05:27:06;;;;;;;12.95;5.60;;;;;;;;;;5135771;27;20051;-69
2021/08/27 05:29:32;;;;;;;9.68;4.80;;;;;;;;;;5136355;27;20051;-69
2021/08/27 05:31:58;;;;;;;9.52;5.53;;;;;;;;;;5136321;27;20402;-69
2021/08/27 05:34:26;;;;;;;10.43;5.47;;;;;;;;;;5136225;27;20380;-69
2021/08/27 05:36:53;;;;;;;9.57;5.47;;;;;;;;;;5136034;27;20058;-70
2021/08/27 05:39:19;;;;;;;13.38;4.90;;;;;;;;;;5136109;27;20058;-70
2021/08/27 05:41:46;;;;;;;9.07;5.40;;;;;;;;;;5136240;27;20054;-70
2021/08/27 05:44:13;;;;;;;9.63;5.68;;;;;;;;;;5136418;27;20049;-69
2021/08/27 05:46:39;;;;;;;14.65;5.40;;;;;;;;;;5136256;27;20050;-69
2021/08/27 05:49:06;;;;;;;10.18;4.97;;;;;;;;;;5135854;27;20051;-69
2021/08/27 05:51:33;;;;;;;12.75;4.50;;;;;;;;;;5135862;27;20069;-69
2021/08/27 05:54:00;;;;;;;8.15;5.07;;;;;;;;;;5132457;27;20444;-69
2021/08/27 05:56:26;;;;;;;8.57;5.60;;;;;;;;;;5135640;27;20043;-72
2021/08/27 05:58:53;;;;;;;9.48;5.32;;;;;;;;;;5129143;27;20047;-70
2021/08/27 06:01:19;;;;;;;11.38;5.40;;;;;;;;;;5135859;27;20051;-69
2021/08/27 06:03:46;;;;;;;11.32;6.00;;;;;;;;;;5135543;27;20051;-70
2021/08/27 06:06:12;;;;;;;11.68;5.93;;;;;;;;;;5135428;27;20062;-70
2021/08/27 06:08:40;;;;;;;9.82;4.95;;;;;;;;;;5133449;27;20051;-70
2021/08/27 06:11:07;;;;;;;13.18;5.63;;;;;;;;;;5115002;28;20492;-70
2021/08/27 06:13:33;;;;;;;9.20;5.78;;;;;;;;;;5114908;28;20054;-70
2021/08/27 06:16:00;;;;;;;9.70;5.55;;;;;;;;;;5128394;27;20078;-70
2021/08/27 06:18:27;;;;;;;10.80;6.00;;;;;;;;;;5134433;27;20054;-70
2021/08/27 06:20:53;;;;;;;10.65;5.85;;;;;;;;;;5132077;27;20047;-71
2021/08/27 06:23:20;;;;;;;14.65;7.65;;;;;;;;;;5135061;27;20117;-71
2021/08/27 06:25:48;;;;;;;13.18;4.95;;;;;;;;;;5134152;27;20047;-70
2021/08/27 06:28:15;;;;;;;11.38;5.72;;;;;;;;;;5132122;27;20545;-70
2021/08/27 06:30:42;;;;;;;9.98;5.15;;;;;;;;;;5134682;27;20051;-70
2021/08/27 06:33:09;;;;;;;14.63;6.63;;;;;;;;;;5135066;27;20047;-69
2021/08/27 06:35:36;;;;;;;13.38;6.57;;;;;;;;;;5134895;27;20047;-70
2021/08/27 06:38:24;;;;;;;11.23;6.00;;;;;;;;;;5135360;27;20062;-70
2021/08/27 06:40:56;;;;;;;10.75;6.25;;;;;;;;;;5134884;27;20047;-70
2021/08/27 06:43:26;;;;;;;10.82;6.18;;;;;;;;;;5135173;27;20608;-70
2021/08/27 06:45:52;;;;;;;13.02;5.95;;;;;;;;;;5134808;27;20498;-70
2021/08/27 06:48:19;;;;;;;8.95;5.53;;;;;;;;;;5134558;27;20050;-70
2021/08/27 06:50:45;;;;;;;7.65;5.57;;;;;;;;;;5134308;27;20050;-70
2021/08/27 06:53:12;;;;;;;9.25;5.47;;;;;;;;;;5134527;27;20415;-70
2021/08/27 06:55:38;;;;;;;9.85;5.82;;;;;;;;;;5134367;27;20071;-70
2021/08/27 06:58:06;;;;;;;10.85;5.45;;;;;;;;;;5134718;27;20051;-70
2021/08/27 07:00:33;;;;;;;10.02;5.95;;;;;;;;;;5134924;27;20051;-70
2021/08/27 07:03:00;;;;;;;10.43;6.00;;;;;;;;;;5134403;27;20043;-70
2021/08/27 07:05:27;;;;;;;11.65;6.05;;;;;;;;;;5134452;27;20047;-70
2021/08/27 07:07:53;;;;;;;11.02;5.97;;;;;;;;;;5133983;27;20069;-70
2021/08/27 07:10:20;;;;;;;13.02;5.70;;;;;;;;;;5134632;27;20043;-70
2021/08/27 07:12:48;;;;;;;8.80;5.13;;;;;;;;;;5134794;27;20053;-70
2021/08/27 07:15:16;;;;;;;9.80;4.78;;;;;;;;;;5134831;27;20047;-70
2021/08/27 07:17:43;;;;;;;10.00;4.65;;;;;;;;;;5134351;27;20043;-70
2021/08/27 07:20:11;;;;;;;10.77;6.53;;;;;;;;;;5134113;27;20069;-70
2021/08/27 07:22:38;;;;;;;12.45;6.20;;;;;;;;;;5134548;27;20051;-70
2021/08/27 07:25:06;;;;;;;8.70;5.00;;;;;;;;;;5134065;27;20054;-70
2021/08/27 07:27:32;;;;;;;10.20;5.47;;;;;;;;;;5132945;27;20051;-69
2021/08/27 07:29:59;;;;;;;12.23;5.75;;;;;;;;;;5133933;27;20090;-70
2021/08/27 07:32:27;;;;;;;9.88;5.97;;;;;;;;;;5133812;27;20054;-70
2021/08/27 07:34:53;;;;;;;6.93;4.38;;;;;;;;;;5133279;27;20487;-69
2021/08/27 07:37:20;;;;;;;7.70;4.03;;;;;;;;;;5134203;27;20066;-69
2021/08/27 07:39:46;;;;;;;7.22;4.10;;;;;;;;;;5134025;27;20055;-69
2021/08/27 07:42:13;;;;;;;5.75;3.67;;;;;;;;;;5134180;27;20055;-69
2021/08/27 07:44:39;;;;;;;8.65;3.85;;;;;;;;;;5134121;27;20043;-69
2021/08/27 07:47:06;;;;;;;6.50;3.60;;;;;;;;;;5133800;27;20054;-69
2021/08/27 07:49:34;;;;;;;7.35;3.20;;;;;;;;;;5133780;27;20047;-69
2021/08/27 07:52:00;;;;;;;6.32;3.25;;;;;;;;;;5133852;27;20047;-70
2021/08/27 07:54:27;;;;;;;5.50;3.03;;;;;;;;;;5133937;27;20047;-70
2021/08/27 07:56:53;;;;;;;8.30;3.45;;;;;;;;;;5133936;27;20055;-69
2021/08/27 07:59:20;;;;;;;5.68;2.97;;;;;;;;;;5133822;27;20043;-69
2021/08/27 08:01:46;;;;;;;5.97;2.47;;;;;;;;;;5133762;27;20138;-69
2021/08/27 08:04:13;;;;;;;6.28;3.17;;;;;;;;;;5133168;27;20526;-69
2021/08/27 08:06:41;;;;;;;7.18;3.72;;;;;;;;;;5133790;27;20054;-69
2021/08/27 08:09:08;;;;;;;5.43;3.58;;;;;;;;;;5133690;27;20043;-69
2021/08/27 08:11:35;;;;;;;4.95;3.17;;;;;;;;;;5133599;27;20047;-69
2021/08/27 08:14:02;;;;;;;5.50;2.47;;;;;;;;;;5133459;27;20043;-69
2021/08/27 08:16:29;;;;;;;7.38;3.45;;;;;;;;;;5133301;27;20050;-69
2021/08/27 08:18:55;;;;;;;5.50;3.00;;;;;;;;;;5133523;27;20051;-69
2021/08/27 08:21:23;;;;;;;7.18;4.10;;;;;;;;;;5133079;27;20480;-69
2021/08/27 08:23:51;;;;;;;10.15;4.00;;;;;;;;;;5133490;27;20101;-69
2021/08/27 08:26:19;;;;;;;8.85;3.70;;;;;;;;;;5133055;27;20074;-68
2021/08/27 08:28:46;;;;;;;7.13;3.97;;;;;;;;;;5131682;27;20047;-69
2021/08/27 08:31:17;;;;;;;16.15;3.90;;;;;;;;;;5132919;27;20067;-69
2021/08/27 08:33:43;;;;;;;7.57;3.58;;;;;;;;;;5132666;27;20083;-69
2021/08/27 08:36:10;;;;;;;8.35;4.60;;;;;;;;;;5132971;27;20466;-69
2021/08/27 08:38:36;;;;;;;7.05;3.22;;;;;;;;;;5133441;27;20054;-69
2021/08/27 08:41:05;;;;;;;7.25;3.28;;;;;;;;;;5133932;27;20491;-69
2021/08/27 08:43:32;;;;;;;7.43;2.75;;;;;;;;;;5133198;27;20058;-69
2021/08/27 08:45:58;;;;;;;7.45;3.70;;;;;;;;;;5133033;27;20051;-69
2021/08/27 08:48:26;;;;;;;6.32;2.95;;;;;;;;;;5133192;27;20047;-69
2021/08/27 08:50:53;;;;;;;6.13;2.83;;;;;;;;;;5133278;27;20054;-69
2021/08/27 08:53:22;;;;;;;8.07;2.92;;;;;;;;;;5133096;27;20062;-69
2021/08/27 08:55:48;;;;;;;6.07;3.47;;;;;;;;;;5132910;27;20054;-69
2021/08/27 08:58:16;;;;;;;10.48;3.55;;;;;;;;;;5132803;27;20051;-69
2021/08/27 09:00:43;;;;;;;8.70;3.35;;;;;;;;;;5132727;27;20047;-69
2021/08/27 09:03:09;;;;;;;6.13;3.58;;;;;;;;;;5132513;27;20411;-69
2021/08/27 09:05:36;;;;;;;6.22;3.38;;;;;;;;;;5132446;27;20502;-69
2021/08/27 09:08:02;;;;;;;9.75;3.85;;;;;;;;;;5127902;28;20043;-69
2021/08/27 09:10:30;;;;;;;6.82;3.42;;;;;;;;;;5127367;28;20051;-69
2021/08/27 09:13:06;;;;;;;6.93;3.33;;;;;;;;;;5126620;28;20054;-70
2021/08/27 09:15:35;;;;;;;5.82;3.42;;;;;;;;;;5132318;28;20051;-69
2021/08/27 09:18:05;;;;;;;5.70;3.30;;;;;;;;;;5132747;28;20460;-69
2021/08/27 09:20:32;;;;;;;4.80;3.30;;;;;;;;;;5132396;28;20129;-69
2021/08/27 09:23:00;;;;;;;5.25;3.25;;;;;;;;;;5132642;28;20415;-69
2021/08/27 09:25:27;;;;;;;4.28;2.78;;;;;;;;;;5132339;28;20043;-69
2021/08/27 09:28:18;;;;;;;5.90;2.95;;;;;;;;;;5132425;28;20062;-69
2021/08/27 09:30:56;;;;;;;5.18;2.60;;;;;;;;;;5109339;28;20139;-69
2021/08/27 09:33:24;;;;;;;4.57;2.65;;;;;;;;;;5128862;28;20062;-69
2021/08/27 09:35:55;;;;;;;5.30;2.80;;;;;;;;;;5123667;28;20472;-69
2021/08/27 09:38:24;;;;;;;4.78;2.65;;;;;;;;;;5127909;28;20420;-70
2021/08/27 09:40:59;;;;;;;8.90;2.90;;;;;;;;;;5122058;28;20047;-69
2021/08/27 09:43:26;;;;;;;6.57;2.50;;;;;;;;;;5124390;28;20472;-69
2021/08/27 09:45:52;;;;;;;4.00;2.42;;;;;;;;;;5127486;28;20050;-69
2021/08/27 09:48:20;;;;;;;9.30;2.92;;;;;;;;;;5128013;28;20054;-69
2021/08/27 09:50:49;;;;;;;7.15;2.67;;;;;;;;;;5126021;28;20384;-69
2021/08/27 09:53:17;;;;;;;5.45;2.50;;;;;;;;;;5127277;28;20051;-69
2021/08/27 09:55:54;;;;;;;4.22;2.47;;;;;;;;;;5131471;27;20039;-69
2021/08/27 09:58:20;;;;;;;7.63;2.28;;;;;;;;;;5135965;27;20047;-69
2021/08/27 10:00:50;;;;;;;4.32;2.03;;;;;;;;;;5135280;27;20051;-69
2021/08/27 10:03:21;;;;;;;4.32;2.30;;;;;;;;;;5129988;27;20486;-69
2021/08/27 10:05:49;;;;;;;5.47;2.08;;;;;;;;;;5135513;27;20050;-69
2021/08/27 10:08:17;;;;;;;4.47;1.95;;;;;;;;;;5128536;27;20048;-69
2021/08/27 10:10:44;;;;;;;4.28;2.17;;;;;;;;;;5119280;27;20051;-69
2021/08/27 10:13:11;;;;;;;5.45;2.13;;;;;;;;;;5132265;27;20480;-69
2021/08/27 10:15:38;;;;;;;2.65;1.70;;;;;;;;;;5135442;27;20150;-69
2021/08/27 10:18:08;;;;;;;4.22;1.90;;;;;;;;;;5133174;27;20488;-69
2021/08/27 10:20:37;;;;;;;5.15;1.83;;;;;;;;;;5133110;27;20050;-69
2021/08/27 10:23:04;;;;;;;2.95;1.60;;;;;;;;;;5129514;27;20131;-69
2021/08/27 10:25:31;;;;;;;4.18;1.73;;;;;;;;;;5114558;28;20044;-68
2021/08/27 10:27:57;;;;;;;4.72;1.55;;;;;;;;;;5114805;28;20078;-69
2021/08/27 10:30:52;;;;;;;3.55;1.60;;;;;;;;;;5127619;27;20059;-69
2021/08/27 10:33:20;;;;;;;2.80;1.67;;;;;;;;;;5130347;27;20055;-69
2021/08/27 10:35:51;;;;;;;2.97;1.45;;;;;;;;;;5135110;27;20040;-69
2021/08/27 10:38:43;;;;;;;2.78;1.50;;;;;;;;;;5135168;27;20051;-68
2021/08/27 10:41:12;;;;;;;4.05;1.60;;;;;;;;;;5134851;27;20069;-68
2021/08/27 10:43:57;;;;;;;4.28;1.67;;;;;;;;;;5135200;27;20524;-68
2021/08/27 10:46:25;;;;;;;3.00;1.35;;;;;;;;;;5134933;27;20433;-68
2021/08/27 10:48:52;;;;;;;3.03;1.13;;;;;;;;;;5135160;27;20475;-69
2021/08/27 10:51:37;;;;;;;2.45;1.70;;;;;;;;;;5134900;27;20511;-67
2021/08/27 10:54:04;;;;;;;1.90;1.20;;;;;;;;;;5135079;27;20050;-68
2021/08/27 10:56:43;;;;;;;2.15;1.13;;;;;;;;;;5134811;27;20040;-67
2021/08/27 10:59:11;;;;;;;3.35;1.08;;;;;;;;;;5135026;27;20043;-68
2021/08/27 11:01:39;;;;;;;2.97;1.60;;;;;;;;;;5134234;27;20047;-68
2021/08/27 11:04:12;;;;;;;3.33;1.40;;;;;;;;;;5127814;27;20055;-68
2021/08/27 11:06:49;;;;;;;2.28;1.08;;;;;;;;;;5128067;27;20045;-69
2021/08/27 11:09:21;;;;;;;2.83;0.98;;;;;;;;;;5128095;27;20047;-69
2021/08/27 11:11:48;;;;;;;2.72;1.23;;;;;;;;;;5130982;27;20104;-69
2021/08/27 11:14:16;;;;;;;3.55;1.67;;;;;;;;;;5123321;27;20373;-69
2021/08/27 11:16:43;;;;;;;3.08;1.20;;;;;;;;;;5134458;27;20054;-69
2021/08/27 11:19:25;;;;;;;3.42;1.15;;;;;;;;;;5134359;27;20047;-69
2021/08/27 11:21:58;;;;;;;2.70;1.10;;;;;;;;;;5126030;27;20051;-69
2021/08/27 11:24:26;;;;;;;3.25;0.80;;;;;;;;;;5134530;27;20054;-69
2021/08/27 11:27:00;;;;;;;2.28;1.10;;;;;;;;;;5127494;27;20043;-69
2021/08/27 11:29:34;;;;;;;1.88;0.88;;;;;;;;;;5125399;27;20043;-69
2021/08/27 11:32:09;;;;;;;2.30;0.93;;;;;;;;;;5131365;27;20079;-69
2021/08/27 11:34:51;;;;;;;4.80;1.10;;;;;;;;;;5114935;27;20066;-69
2021/08/27 11:37:19;;;;;;;1.83;0.68;;;;;;;;;;5123965;27;20051;-69
2021/08/27 11:39:47;;;;;;;2.53;1.02;;;;;;;;;;5122380;27;20044;-69
2021/08/27 11:42:14;;;;;;;1.45;0.80;;;;;;;;;;5113605;28;20533;-69
2021/08/27 11:44:43;;;;;;;3.83;0.98;;;;;;;;;;5113340;28;20048;-69
2021/08/27 11:47:11;;;;;;;2.67;0.90;;;;;;;;;;5113059;28;20043;-69
2021/08/27 11:49:40;;;;;;;1.10;0.65;;;;;;;;;;5113138;27;20054;-69
2021/08/27 11:52:27;;;;;;;2.05;1.05;;;;;;;;;;5125228;27;20063;-69
2021/08/27 11:55:01;;;;;;;2.08;1.00;;;;;;;;;;5130412;27;20104;-69
2021/08/27 11:57:28;;;;;;;1.48;0.88;;;;;;;;;;5124315;27;20054;-68
2021/08/27 12:00:08;;;;;;;2.88;1.00;;;;;;;;;;5113182;28;20137;-68
2021/08/27 12:02:35;;;;;;;4.43;1.00;;;;;;;;;;5115398;27;20035;-70
2021/08/27 12:05:03;;;;;;;1.63;0.90;;;;;;;;;;5112969;28;20051;-69
2021/08/27 12:07:31;;;;;;;1.50;0.82;;;;;;;;;;5127094;27;20043;-68
2021/08/27 12:10:18;;;;;;;3.85;1.33;;;;;;;;;;5133215;27;20077;-68
2021/08/27 12:12:46;;;;;;;1.42;0.80;;;;;;;;;;5116911;27;20062;-72
2021/08/27 12:15:14;;;;;;;4.47;0.90;;;;;;;;;;5121360;27;20096;-69
2021/08/27 12:17:41;;;;;;;2.30;1.15;;;;;;;;;;5123856;27;20411;-70
2021/08/27 12:20:09;;;;;;;1.55;0.85;;;;;;;;;;5126772;27;20047;-69
2021/08/27 12:22:44;;;;;;;2.15;0.80;;;;;;;;;;5128592;27;20047;-69
2021/08/27 12:25:19;;;;;;;2.28;1.00;;;;;;;;;;5125515;27;20062;-69
2021/08/27 12:27:49;;;;;;;3.33;1.20;;;;;;;;;;5117623;27;20046;-69
2021/08/27 12:30:16;;;;;;;3.20;0.80;;;;;;;;;;5132174;27;20461;-69
2021/08/27 12:32:44;;;;;;;2.67;1.10;;;;;;;;;;5130582;27;20069;-69
2021/08/27 12:35:13;;;;;;;4.55;1.00;;;;;;;;;;5126148;27;20043;-69
2021/08/27 12:37:42;;;;;;;5.22;1.15;;;;;;;;;;5129539;27;20058;-67
2021/08/27 12:40:11;;;;;;;7.95;1.30;;;;;;;;;;5111717;28;20043;-67
2021/08/27 12:42:38;;;;;;;3.65;0.90;;;;;;;;;;5122052;27;20081;-68
2021/08/27 12:45:06;;;;;;;3.03;0.93;;;;;;;;;;5128015;27;20054;-68
2021/08/27 12:47:37;;;;;;;3.13;1.00;;;;;;;;;;5124741;27;20051;-67
2021/08/27 12:50:07;;;;;;;1.85;0.85;;;;;;;;;;5126284;27;20484;-67
2021/08/27 12:52:33;;;;;;;2.35;1.10;;;;;;;;;;5111454;28;20052;-68
2021/08/27 12:55:02;;;;;;;5.65;1.15;;;;;;;;;;5123095;27;20368;-69
2021/08/27 12:57:28;;;;;;;2.92;1.17;;;;;;;;;;5127626;27;20047;-68
2021/08/27 12:59:56;;;;;;;2.50;0.98;;;;;;;;;;5127425;27;20384;-68
2021/08/27 13:02:23;;;;;;;3.38;1.02;;;;;;;;;;5127430;27;20055;-68
2021/08/27 13:04:51;;;;;;;2.63;0.95;;;;;;;;;;5131092;27;20043;-68
2021/08/27 13:07:25;;;;;;;1.80;0.93;;;;;;;;;;5121433;27;20455;-68
2021/08/27 13:09:53;;;;;;;3.45;1.05;;;;;;;;;;5123480;28;20050;-68
2021/08/27 13:12:33;;;;;;;2.55;1.00;;;;;;;;;;5131982;28;20059;-69
2021/08/27 13:14:59;;;;;;;2.88;1.10;;;;;;;;;;5129768;28;20039;-68
2021/08/27 13:17:26;;;;;;;6.72;1.25;;;;;;;;;;5123933;28;20047;-68
2021/08/27 13:19:55;;;;;;;3.47;1.27;;;;;;;;;;5127669;28;20046;-68
2021/08/27 13:22:23;;;;;;;3.85;1.10;;;;;;;;;;5127261;28;20053;-68
2021/08/27 13:24:58;;;;;;;5.93;1.95;;;;;;;;;;5130176;28;20456;-68
2021/08/27 13:27:25;;;;;;;5.18;1.40;;;;;;;;;;5127391;28;20047;-68
2021/08/27 13:29:53;;;;;;;4.00;0.93;;;;;;;;;;5131063;28;20051;-68
2021/08/27 13:32:23;;;;;;;2.92;1.10;;;;;;;;;;5132685;27;20054;-68
2021/08/27 13:34:50;;;;;;;2.00;1.08;;;;;;;;;;5133831;27;20058;-68
2021/08/27 13:37:16;;;;;;;2.85;1.20;;;;;;;;;;5135531;27;20118;-68
2021/08/27 13:39:43;;;;;;;5.00;1.38;;;;;;;;;;5133236;27;20066;-67
2021/08/27 13:42:09;;;;;;;6.72;1.90;;;;;;;;;;5115225;28;20052;-68
2021/08/27 13:44:36;;;;;;;4.00;1.58;;;;;;;;;;5115588;28;20055;-67
2021/08/27 13:47:04;;;;;;;6.95;1.50;;;;;;;;;;5115199;28;20074;-65
2021/08/27 13:49:30;;;;;;;2.88;1.20;;;;;;;;;;5115441;28;20048;-67
2021/08/27 13:51:57;;;;;;;5.13;1.13;;;;;;;;;;5128790;27;20043;-68
2021/08/27 13:54:23;;;;;;;3.17;1.17;;;;;;;;;;5134362;27;20051;-69
2021/08/27 13:56:51;;;;;;;3.92;1.20;;;;;;;;;;5126723;27;20035;-69
2021/08/27 13:59:17;;;;;;;2.00;0.90;;;;;;;;;;5135117;27;20066;-68
2021/08/27 14:01:44;;;;;;;2.80;1.02;;;;;;;;;;5127083;27;20039;-69
2021/08/27 14:04:11;;;;;;;2.75;1.02;;;;;;;;;;5134432;27;20039;-68
2021/08/27 14:06:38;;;;;;;4.57;1.42;;;;;;;;;;5134273;27;20043;-68
2021/08/27 14:09:05;;;;;;;2.80;1.17;;;;;;;;;;5118437;27;20388;-68
2021/08/27 14:11:31;;;;;;;2.83;1.10;;;;;;;;;;5129134;27;20039;-66
2021/08/27 14:13:58;;;;;;;2.63;1.00;;;;;;;;;;5130235;27;20055;-67
2021/08/27 14:16:25;;;;;;;2.47;1.33;;;;;;;;;;5131951;27;20686;-68
2021/08/27 14:18:51;;;;;;;2.30;1.05;;;;;;;;;;5134848;27;20054;-68
2021/08/27 14:21:19;;;;;;;3.60;1.00;;;;;;;;;;5123568;27;20664;-68
2021/08/27 14:23:45;;;;;;;1.80;0.82;;;;;;;;;;5130970;27;20475;-68
2021/08/27 14:26:12;;;;;;;4.55;1.10;;;;;;;;;;5135094;27;20047;-68
2021/08/27 14:28:38;;;;;;;1.98;0.80;;;;;;;;;;5135158;27;20051;-68
2021/08/27 14:31:08;;;;;;;4.47;1.45;;;;;;;;;;5135136;27;20047;-68
2021/08/27 14:33:36;;;;;;;3.15;1.00;;;;;;;;;;5135019;27;20368;-68
2021/08/27 14:36:02;;;;;;;4.28;1.05;;;;;;;;;;5134543;27;20047;-67
2021/08/27 14:38:30;;;;;;;1.75;0.90;;;;;;;;;;5135192;27;20039;-68
2021/08/27 14:40:56;;;;;;;3.50;1.48;;;;;;;;;;5135032;27;20058;-68
2021/08/27 14:43:24;;;;;;;3.80;1.08;;;;;;;;;;5129369;27;20055;-67
2021/08/27 14:45:50;;;;;;;2.88;0.90;;;;;;;;;;5130669;27;20078;-68
2021/08/27 14:48:17;;;;;;;2.72;1.10;;;;;;;;;;5127732;27;20050;-68